Time;durP1;ratioP1;P1;durP2;ratioP2;P2;SDS_P1;SDS_P2;PMS_P1;PMS_P2;Temp;Humidity;BMP_temperature;BMP_pressure;BME280_temperature;BME280_humidity;BME280_pressure;Samples;Min_cycle;Max_cycle;Signal;HPM_P1;HPM_P2
2023/11/09 00:00:46;;;;;;;2.08;1.33;;;;;;;6.03;74.60;94277.63;5065161;28;20029;-76
2023/11/09 00:03:12;;;;;;;1.77;1.13;;;;;;;6.03;74.96;94276.84;5065072;28;20092;-76
2023/11/09 00:05:37;;;;;;;2.75;1.58;;;;;;;6.06;75.28;94278.94;5065004;28;20204;-76
2023/11/09 00:08:03;;;;;;;2.58;1.30;;;;;;;6.08;74.14;94286.59;5064758;28;20025;-76
2023/11/09 00:10:29;;;;;;;4.35;1.98;;;;;;;6.13;76.39;94276.78;5065129;28;20171;-76
2023/11/09 00:12:58;;;;;;;2.30;1.45;;;;;;;6.06;77.48;94284.22;5064831;28;20029;-76
2023/11/09 00:15:26;;;;;;;4.40;1.85;;;;;;;6.07;77.83;94283.16;5064926;28;20036;-76
2023/11/09 00:17:52;;;;;;;6.30;2.15;;;;;;;6.05;78.13;94290.59;5097007;28;20099;-76
2023/11/09 00:20:18;;;;;;;3.28;1.73;;;;;;;5.97;78.68;94294.59;5064658;28;20032;-75
2023/11/09 00:22:46;;;;;;;2.95;1.83;;;;;;;5.92;78.53;94301.72;5064596;28;20021;-75
2023/11/09 00:25:12;;;;;;;3.17;2.00;;;;;;;5.83;78.33;94294.38;5063611;28;20024;-76
2023/11/09 00:27:38;;;;;;;4.57;2.03;;;;;;;5.77;78.28;94295.44;5064562;28;20025;-75
2023/11/09 00:30:06;;;;;;;4.82;1.98;;;;;;;5.74;78.10;94289.91;5064519;28;20056;-76
2023/11/09 00:32:32;;;;;;;3.45;2.10;;;;;;;5.72;78.01;94292.84;5096867;28;20021;-76
2023/11/09 00:34:57;;;;;;;5.65;2.45;;;;;;;5.74;78.07;94284.63;5096996;28;20223;-76
2023/11/09 00:37:23;;;;;;;2.83;2.00;;;;;;;5.67;77.99;94284.91;5096860;28;20027;-76
2023/11/09 00:39:48;;;;;;;5.53;2.55;;;;;;;5.65;78.43;94279.13;5064130;28;20032;-75
2023/11/09 00:42:15;;;;;;;4.45;2.17;;;;;;;5.68;78.59;94275.94;5064296;28;20032;-75
2023/11/09 00:44:41;;;;;;;4.00;2.33;;;;;;;5.67;78.63;94287.56;5064415;28;20115;-75
2023/11/09 00:47:07;;;;;;;6.78;2.20;;;;;;;5.65;77.66;94287.03;5064331;28;20231;-75
2023/11/09 00:49:32;;;;;;;10.68;2.88;;;;;;;5.64;77.74;94285.47;5064114;28;20055;-74
2023/11/09 00:51:58;;;;;;;3.60;2.15;;;;;;;5.65;77.36;94308.19;5064143;28;20024;-75
2023/11/09 00:54:23;;;;;;;4.78;2.47;;;;;;;5.66;77.30;94301.88;5064030;28;20027;-76
2023/11/09 00:56:48;;;;;;;5.65;2.45;;;;;;;5.61;76.64;94313.22;5063917;28;20017;-76
2023/11/09 00:59:14;;;;;;;4.78;2.58;;;;;;;5.64;76.44;94309.28;5063917;28;20013;-75
2023/11/09 01:01:40;;;;;;;3.40;2.25;;;;;;;5.61;76.74;94326.47;5064004;28;20013;-75
2023/11/09 01:04:05;;;;;;;8.48;2.75;;;;;;;5.61;77.01;94330.97;5063895;28;20025;-76
2023/11/09 01:06:32;;;;;;;4.05;2.65;;;;;;;5.55;76.86;94318.81;5062876;28;20021;-75
2023/11/09 01:08:58;;;;;;;4.10;2.60;;;;;;;5.50;77.72;94317.00;5063799;28;20021;-77
2023/11/09 01:11:24;;;;;;;4.82;2.10;;;;;;;5.46;77.95;94325.75;5063663;28;20036;-77
2023/11/09 01:13:52;;;;;;;4.22;2.50;;;;;;;5.39;78.38;94316.25;5063727;28;20029;-75
2023/11/09 01:16:18;;;;;;;4.55;2.50;;;;;;;5.42;78.59;94312.25;5063623;28;20021;-75
2023/11/09 01:18:43;;;;;;;4.05;2.30;;;;;;;5.42;78.72;94310.41;5063522;28;20028;-75
2023/11/09 01:21:09;;;;;;;5.13;2.70;;;;;;;5.36;78.92;94314.13;5063547;28;20021;-75
2023/11/09 01:23:35;;;;;;;4.80;2.80;;;;;;;5.35;79.18;94317.03;5063521;28;20044;-75
2023/11/09 01:26:00;;;;;;;4.07;2.55;;;;;;;5.35;78.81;94309.91;5063768;28;20242;-75
2023/11/09 01:28:26;;;;;;;5.35;2.60;;;;;;;5.27;78.63;94318.38;5063384;28;20023;-75
2023/11/09 01:30:51;;;;;;;5.82;2.63;;;;;;;5.32;78.98;94305.13;5063172;28;20307;-75
2023/11/09 01:33:17;;;;;;;4.90;2.83;;;;;;;5.23;79.29;94310.19;5063615;28;20025;-75
2023/11/09 01:35:42;;;;;;;3.75;2.53;;;;;;;5.23;79.08;94312.03;5063275;28;20031;-75
2023/11/09 01:38:07;;;;;;;5.28;3.13;;;;;;;5.21;78.84;94307.03;5063005;28;20025;-75
2023/11/09 01:40:34;;;;;;;4.53;2.67;;;;;;;5.12;78.89;94303.34;5063293;28;20068;-75
2023/11/09 01:42:59;;;;;;;4.28;2.95;;;;;;;5.07;79.30;94321.03;5063238;28;20020;-76
2023/11/09 01:45:25;;;;;;;5.93;3.10;;;;;;;5.07;79.26;94305.19;5063087;28;20028;-76
2023/11/09 01:47:53;;;;;;;3.63;2.38;;;;;;;5.03;79.88;94307.59;5063247;28;20374;-76
2023/11/09 01:50:18;;;;;;;3.60;2.20;;;;;;;5.03;79.42;94328.72;5063023;28;20199;-76
2023/11/09 01:52:44;;;;;;;3.33;2.35;;;;;;;5.07;79.36;94323.69;5062917;28;20028;-77
2023/11/09 01:55:11;;;;;;;4.68;2.58;;;;;;;5.00;79.13;94332.66;5063082;28;20045;-76
2023/11/09 01:57:40;;;;;;;10.82;2.53;;;;;;;4.99;79.26;94331.09;5062790;28;20242;-76
2023/11/09 02:00:08;;;;;;;5.38;2.17;;;;;;;4.99;79.04;94317.91;5062892;28;20032;-76
2023/11/09 02:02:35;;;;;;;3.72;2.30;;;;;;;5.02;78.86;94333.19;5063093;28;20020;-76
2023/11/09 02:05:01;;;;;;;2.95;1.90;;;;;;;5.03;78.39;94337.44;5063055;28;20021;-76
2023/11/09 02:07:28;;;;;;;4.45;2.38;;;;;;;5.06;78.57;94343.25;5062673;28;20092;-76
2023/11/09 02:09:53;;;;;;;4.90;2.88;;;;;;;5.03;77.61;94334.78;5062926;28;20031;-76
2023/11/09 02:12:19;;;;;;;6.40;2.35;;;;;;;5.14;77.85;94332.13;5062860;28;20017;-76
2023/11/09 02:14:44;;;;;;;2.92;2.28;;;;;;;5.13;77.29;94336.63;5062967;28;20223;-76
2023/11/09 02:17:11;;;;;;;3.20;2.00;;;;;;;5.02;76.82;94343.78;5062801;28;20075;-76
2023/11/09 02:19:37;;;;;;;2.78;2.15;;;;;;;5.01;76.87;94330.84;5062670;28;20036;-76
2023/11/09 02:22:03;;;;;;;4.05;1.90;;;;;;;4.97;76.67;94340.38;5062521;28;20100;-76
2023/11/09 02:24:29;;;;;;;3.97;1.90;;;;;;;5.04;77.11;94340.88;5062919;28;20020;-76
2023/11/09 02:26:55;;;;;;;3.08;1.70;;;;;;;5.06;76.17;94359.88;5062715;28;20079;-76
2023/11/09 02:29:21;;;;;;;7.45;2.03;;;;;;;5.06;76.15;94348.53;5061348;28;20104;-76
2023/11/09 02:31:47;;;;;;;2.90;1.70;;;;;;;5.10;74.38;94346.94;5062519;28;20021;-76
2023/11/09 02:34:16;;;;;;;4.25;2.05;;;;;;;5.14;74.61;94334.78;5062619;28;20032;-75
2023/11/09 02:36:42;;;;;;;2.30;1.58;;;;;;;5.21;73.46;94356.44;5062565;28;20021;-76
2023/11/09 02:39:12;;;;;;;3.58;1.98;;;;;;;5.29;73.18;94355.91;5062482;28;20044;-75
2023/11/09 02:41:37;;;;;;;4.05;2.03;;;;;;;5.29;73.21;94361.19;5062388;28;20048;-75
2023/11/09 02:44:02;;;;;;;2.90;1.90;;;;;;;5.38;73.33;94370.16;5062219;28;20279;-76
2023/11/09 02:46:28;;;;;;;2.85;1.63;;;;;;;5.33;73.00;94364.06;5062471;28;20024;-76
2023/11/09 02:48:53;;;;;;;10.77;1.90;;;;;;;5.33;72.67;94353.50;5063752;28;20088;-76
2023/11/09 02:51:19;;;;;;;4.65;2.00;;;;;;;5.37;72.80;94373.06;5064931;28;20047;-75
2023/11/09 02:53:45;;;;;;;3.40;1.98;;;;;;;5.40;72.22;94375.97;5066111;28;20025;-76
2023/11/09 02:56:10;;;;;;;4.10;2.10;;;;;;;5.40;71.52;94354.81;5065030;28;20179;-75
2023/11/09 02:58:35;;;;;;;4.03;2.65;;;;;;;5.42;72.17;94355.34;5066196;28;20100;-75
2023/11/09 03:01:01;;;;;;;3.58;1.80;;;;;;;5.42;71.56;94365.91;5066204;28;20051;-75
2023/11/09 03:03:27;;;;;;;4.10;2.33;;;;;;;5.43;71.51;94369.34;5066115;28;20270;-75
2023/11/09 03:05:55;;;;;;;4.80;2.10;;;;;;;5.39;71.76;94369.09;5065970;28;20039;-76
2023/11/09 03:08:21;;;;;;;3.67;2.00;;;;;;;5.35;72.47;94375.19;5064710;28;20043;-76
2023/11/09 03:10:47;;;;;;;3.35;1.88;;;;;;;5.27;72.92;94376.53;5065820;28;20029;-76
2023/11/09 03:13:13;;;;;;;3.53;2.15;;;;;;;5.27;72.95;94381.00;5066027;28;20036;-76
2023/11/09 03:15:41;;;;;;;3.78;2.30;;;;;;;5.28;73.22;94383.38;5066107;28;20020;-76
2023/11/09 03:18:09;;;;;;;4.15;2.75;;;;;;;5.26;73.51;94382.88;5065908;28;20021;-76
2023/11/09 03:20:34;;;;;;;2.88;2.05;;;;;;;5.22;73.74;94381.81;5065639;28;20119;-76
2023/11/09 03:23:00;;;;;;;4.10;2.03;;;;;;;5.16;74.27;94377.59;5066223;28;20108;-76
2023/11/09 03:25:25;;;;;;;5.53;2.47;;;;;;;5.10;74.62;94374.16;5064621;28;20067;-76
2023/11/09 03:27:51;;;;;;;3.80;2.42;;;;;;;5.00;74.70;94367.03;5065598;28;20017;-75
2023/11/09 03:30:16;;;;;;;6.82;2.03;;;;;;;4.99;74.89;94365.44;5065684;28;20025;-76
2023/11/09 03:32:42;;;;;;;2.70;1.85;;;;;;;4.98;74.74;94376.28;5065369;28;20021;-76
2023/11/09 03:35:07;;;;;;;3.67;2.10;;;;;;;4.93;75.03;94371.78;5064319;28;20028;-77
2023/11/09 03:37:33;;;;;;;5.72;2.20;;;;;;;4.94;74.84;94376.00;5065595;28;20219;-77
2023/11/09 03:39:58;;;;;;;3.50;2.00;;;;;;;4.95;74.55;94372.31;5065545;28;20041;-77
2023/11/09 03:42:24;;;;;;;4.22;2.47;;;;;;;4.88;74.78;94381.56;5065428;28;20025;-77
2023/11/09 03:44:58;;;;;;;3.63;2.30;;;;;;;4.92;75.28;94386.03;5065216;28;20020;-77
2023/11/09 03:47:24;;;;;;;5.28;2.58;;;;;;;4.92;74.88;94380.75;5065290;28;20025;-78
2023/11/09 03:49:49;;;;;;;4.40;2.67;;;;;;;4.94;74.14;94389.22;5065284;28;20024;-76
2023/11/09 03:52:15;;;;;;;4.50;2.67;;;;;;;4.99;74.11;94385.81;5065188;28;20222;-76
2023/11/09 03:54:40;;;;;;;4.13;2.50;;;;;;;4.98;74.14;94379.69;5065080;28;20029;-76
2023/11/09 03:57:06;;;;;;;5.13;2.85;;;;;;;5.01;74.36;94383.69;5065031;28;20271;-76
2023/11/09 03:59:31;;;;;;;3.88;2.60;;;;;;;5.04;74.62;94388.44;5065179;28;20021;-76
2023/11/09 04:01:57;;;;;;;3.90;2.30;;;;;;;5.06;74.62;94388.94;5097561;28;20057;-76
2023/11/09 04:04:23;;;;;;;3.75;2.58;;;;;;;5.06;74.55;94393.44;5065051;28;20119;-76
2023/11/09 04:06:48;;;;;;;5.22;2.65;;;;;;;5.07;74.88;94397.66;5064943;28;20067;-76
2023/11/09 04:09:14;;;;;;;8.43;3.50;;;;;;;5.06;74.29;94390.81;5064881;28;20131;-76
2023/11/09 04:11:40;;;;;;;5.85;2.35;;;;;;;5.00;73.04;94393.44;5064727;28;20029;-76
2023/11/09 04:14:07;;;;;;;3.80;1.98;;;;;;;4.93;73.42;94395.56;5064841;28;20036;-76
2023/11/09 04:16:34;;;;;;;4.13;2.00;;;;;;;4.95;73.01;94395.31;5097055;28;20031;-76
2023/11/09 04:19:00;;;;;;;5.00;2.15;;;;;;;4.94;73.24;94399.00;5064835;28;20309;-76
2023/11/09 04:21:25;;;;;;;6.40;2.30;;;;;;;4.88;72.98;94395.56;5064722;28;20067;-76
2023/11/09 04:23:51;;;;;;;4.82;2.72;;;;;;;4.88;72.81;94395.56;5064594;28;20272;-76
2023/11/09 04:26:16;;;;;;;4.97;2.45;;;;;;;4.89;72.86;94397.16;5064585;28;20326;-76
2023/11/09 04:28:42;;;;;;;4.32;2.72;;;;;;;4.91;72.97;94392.41;5064614;28;20150;-76
2023/11/09 04:31:09;;;;;;;4.13;2.53;;;;;;;4.88;73.63;94392.91;5064313;28;20250;-77
2023/11/09 04:33:35;;;;;;;7.05;2.80;;;;;;;4.92;73.80;94404.53;5064321;28;20017;-77
2023/11/09 04:36:05;;;;;;;4.07;2.60;;;;;;;4.93;73.95;94403.50;5063350;28;20063;-77
2023/11/09 04:38:36;;;;;;;4.18;1.80;;;;;;;4.95;73.75;94404.03;5064457;28;20110;-77
2023/11/09 04:41:09;;;;;;;4.90;2.72;;;;;;;4.94;73.86;94399.78;5064459;28;20025;-77
2023/11/09 04:43:39;;;;;;;4.57;2.75;;;;;;;4.92;74.22;94396.59;5064136;28;20318;-76
2023/11/09 04:46:13;;;;;;;7.65;3.50;;;;;;;4.91;74.33;94395.03;5064142;28;20118;-76
2023/11/09 04:48:47;;;;;;;7.95;3.30;;;;;;;4.87;74.57;94399.25;5064389;28;20099;-77
2023/11/09 04:51:29;;;;;;;8.18;4.00;;;;;;;4.86;74.50;94402.94;5063917;28;20025;-76
2023/11/09 04:54:03;;;;;;;12.00;5.00;;;;;;;4.82;74.63;94399.25;5063962;28;20071;-77
2023/11/09 04:58:44;;;;;;;12.50;5.57;;;;;;;4.81;74.82;94398.47;5064101;28;20040;-76
2023/11/09 05:07:33;;;;;;;9.70;4.50;;;;;;;4.57;75.01;94408.72;5064041;28;20059;-76
2023/11/09 05:10:00;;;;;;;12.48;6.38;;;;;;;4.52;75.12;94408.72;5063866;28;20028;-76
2023/11/09 05:12:26;;;;;;;10.45;5.15;;;;;;;4.49;75.40;94414.53;5063113;28;20020;-76
2023/11/09 05:14:52;;;;;;;12.68;5.85;;;;;;;4.47;75.30;94419.25;5063603;28;20275;-76
2023/11/09 05:17:19;;;;;;;12.88;5.90;;;;;;;4.46;75.60;94412.41;5063695;28;20031;-76
2023/11/09 05:19:46;;;;;;;11.57;5.35;;;;;;;4.42;75.69;94414.00;5063628;28;20066;-77
2023/11/09 05:22:12;;;;;;;12.95;4.72;;;;;;;4.43;75.40;94415.56;5063644;28;20021;-76
2023/11/09 05:24:39;;;;;;;7.53;3.17;;;;;;;4.40;75.17;94419.53;5063428;28;20254;-76
2023/11/09 05:27:06;;;;;;;5.68;2.80;;;;;;;4.39;75.16;94425.84;5063549;28;20059;-76
2023/11/09 05:29:33;;;;;;;12.30;3.65;;;;;;;4.37;75.41;94427.94;5062195;28;20020;-76
2023/11/09 05:31:59;;;;;;;6.15;3.65;;;;;;;4.36;75.63;94421.09;5063374;28;20021;-76
2023/11/09 05:34:25;;;;;;;9.07;4.35;;;;;;;4.38;75.74;94420.84;5062860;28;20025;-77
2023/11/09 05:36:50;;;;;;;9.88;5.43;;;;;;;4.37;75.95;94427.94;5063333;28;20218;-77
2023/11/09 05:39:18;;;;;;;8.13;4.85;;;;;;;4.37;76.15;94429.78;5063040;28;20207;-77
2023/11/09 05:41:44;;;;;;;5.63;3.72;;;;;;;4.42;76.19;94424.53;5063209;28;20036;-77
2023/11/09 05:44:10;;;;;;;7.72;3.88;;;;;;;4.44;76.36;94438.28;5062954;28;20092;-77
2023/11/09 05:46:38;;;;;;;5.63;3.25;;;;;;;4.47;75.98;94436.97;5063209;28;20312;-77
2023/11/09 05:49:05;;;;;;;4.65;3.28;;;;;;;4.51;75.79;94436.16;5063207;28;20048;-77
2023/11/09 05:51:31;;;;;;;4.05;2.47;;;;;;;4.54;75.48;94433.03;5063171;28;20135;-77
2023/11/09 05:53:57;;;;;;;6.00;2.90;;;;;;;4.53;75.90;94443.84;5061806;28;20029;-76
2023/11/09 05:56:23;;;;;;;6.13;3.22;;;;;;;4.53;76.38;94430.63;5062740;28;20086;-77
2023/11/09 05:58:53;;;;;;;5.15;3.35;;;;;;;4.59;76.53;94443.56;5095419;28;20226;-77
2023/11/09 06:01:18;;;;;;;5.80;3.15;;;;;;;4.68;76.82;94440.44;5062808;28;20117;-74
2023/11/09 06:03:43;;;;;;;7.65;3.30;;;;;;;4.77;76.98;94449.44;5062767;28;20025;-76
2023/11/09 06:06:09;;;;;;;7.00;3.42;;;;;;;4.88;76.81;94444.94;5062608;28;20025;-74
2023/11/09 06:08:35;;;;;;;7.63;3.90;;;;;;;4.96;76.57;94439.94;5095259;28;20031;-77
2023/11/09 06:11:01;;;;;;;6.45;4.07;;;;;;;5.08;76.38;94444.19;5061569;28;20075;-75
2023/11/09 06:13:27;;;;;;;10.18;4.20;;;;;;;5.15;76.24;94442.88;5062456;28;20229;-76
2023/11/09 06:15:53;;;;;;;8.23;4.68;;;;;;;5.25;76.47;94454.47;5062547;28;20037;-75
2023/11/09 06:18:18;;;;;;;8.93;5.00;;;;;;;5.31;76.24;94456.88;5062522;28;20057;-75
2023/11/09 06:20:47;;;;;;;11.32;5.72;;;;;;;5.37;75.62;94461.09;5062700;28;20037;-73
2023/11/09 06:23:13;;;;;;;9.82;6.07;;;;;;;5.41;75.46;94456.88;5062634;28;20035;-73
2023/11/09 06:25:40;;;;;;;9.70;6.38;;;;;;;5.48;75.14;94459.25;5066525;28;20032;-75
2023/11/09 06:28:05;;;;;;;11.18;6.05;;;;;;;5.54;74.95;94468.75;5066818;28;20021;-75
2023/11/09 06:30:31;;;;;;;15.13;6.18;;;;;;;5.62;74.84;94467.44;5066927;28;20021;-83
2023/11/09 06:32:56;;;;;;;11.30;6.25;;;;;;;5.68;74.50;94466.38;5066639;28;20043;-83
2023/11/09 06:35:22;;;;;;;9.10;5.22;;;;;;;5.70;74.50;94469.53;5066609;28;20215;-83
2023/11/09 06:37:48;;;;;;;14.73;6.32;;;;;;;5.70;74.47;94468.72;5066708;28;20029;-82
2023/11/09 06:40:16;;;;;;;17.95;6.75;;;;;;;5.77;74.36;94462.09;5066499;28;20104;-86
2023/11/09 06:42:49;;;;;;;14.68;6.45;;;;;;;5.81;74.33;94471.09;5066998;28;20323;-86
2023/11/09 06:45:15;;;;;;;13.93;7.15;;;;;;;5.82;74.50;94470.03;5067004;28;20024;-86
2023/11/09 06:47:41;;;;;;;11.68;7.32;;;;;;;5.81;74.82;94465.00;5065368;28;20021;-86
2023/11/09 06:50:13;;;;;;;12.25;7.50;;;;;;;5.83;75.10;94473.47;5064050;28;20021;-87
2023/11/09 06:52:41;;;;;;;15.90;7.75;;;;;;;5.84;75.84;94480.34;5062574;28;20092;-87
2023/11/09 06:55:10;;;;;;;12.43;7.55;;;;;;;5.88;75.52;94486.69;5063643;28;20044;-87
2023/11/09 06:57:37;;;;;;;12.75;7.43;;;;;;;5.88;75.41;94481.38;5064046;28;20060;-87
2023/11/09 07:00:06;;;;;;;12.43;7.47;;;;;;;5.90;75.40;94483.75;5064254;28;20070;-87
2023/11/09 07:02:33;;;;;;;14.55;8.27;;;;;;;5.93;75.77;94476.09;5064937;28;20131;-87
2023/11/09 07:04:59;;;;;;;15.57;8.23;;;;;;;6.00;75.80;94483.78;5065125;28;20017;-87
2023/11/09 07:07:24;;;;;;;16.63;7.97;;;;;;;5.99;75.35;94475.06;5064848;28;20028;-87
2023/11/09 07:09:51;;;;;;;12.77;8.13;;;;;;;6.00;75.15;94487.22;5065701;28;20570;-87
2023/11/09 07:12:19;;;;;;;14.63;7.22;;;;;;;6.03;75.07;94480.59;5066630;28;20040;-87
2023/11/09 07:14:44;;;;;;;15.68;9.10;;;;;;;5.99;75.14;94476.91;5099103;28;20064;-87
2023/11/09 07:17:11;;;;;;;14.35;8.40;;;;;;;6.00;75.46;94481.13;5066604;28;20020;-87
2023/11/09 07:19:37;;;;;;;18.75;8.52;;;;;;;6.08;75.40;94474.50;5066504;28;20043;-87
2023/11/09 07:22:08;;;;;;;11.02;7.40;;;;;;;6.12;75.25;94484.28;5066738;28;20318;-87
2023/11/09 07:24:37;;;;;;;17.80;9.13;;;;;;;6.07;75.43;94481.66;5066628;28;20107;-86
2023/11/09 07:27:06;;;;;;;21.95;8.15;;;;;;;6.03;76.27;94480.59;5066404;28;20025;-87
2023/11/09 07:29:33;;;;;;;17.33;9.52;;;;;;;6.00;77.08;94491.72;5066961;28;20052;-86
2023/11/09 07:31:58;;;;;;;14.65;8.80;;;;;;;6.08;77.43;94474.50;5066748;28;20032;-86
2023/11/09 07:34:26;;;;;;;17.02;8.73;;;;;;;6.05;77.06;94481.13;5065933;28;20028;-86
2023/11/09 07:36:52;;;;;;;13.98;9.10;;;;;;;6.06;78.15;94488.00;5066164;28;20033;-86
2023/11/09 07:39:18;;;;;;;21.08;9.68;;;;;;;6.08;78.37;94482.44;5065276;28;20096;-86
2023/11/09 07:41:44;;;;;;;15.85;9.57;;;;;;;6.13;78.20;94474.50;5066357;28;20338;-86
2023/11/09 07:44:10;;;;;;;17.40;10.23;;;;;;;6.20;77.87;94464.41;5066158;28;20020;-86
2023/11/09 07:46:36;;;;;;;16.80;9.63;;;;;;;6.28;77.63;94471.00;5065936;28;20055;-86
2023/11/09 07:49:03;;;;;;;14.00;8.40;;;;;;;6.28;76.64;94468.34;5098771;28;20091;-86
2023/11/09 07:51:29;;;;;;;14.70;9.38;;;;;;;6.34;76.74;94465.41;5064742;28;20033;-86
2023/11/09 07:53:55;;;;;;;13.10;9.30;;;;;;;6.46;77.28;94472.25;5065566;28;20338;-86
2023/11/09 07:56:20;;;;;;;13.90;9.38;;;;;;;6.53;75.97;94470.88;5065686;28;20021;-87
2023/11/09 07:58:46;;;;;;;19.30;9.45;;;;;;;6.58;75.52;94473.50;5064459;28;20025;-86
2023/11/09 08:01:12;;;;;;;16.25;9.48;;;;;;;6.60;75.25;94479.31;5065741;28;20247;-87
2023/11/09 08:03:39;;;;;;;16.15;9.40;;;;;;;6.61;75.28;94462.38;5065868;28;20021;-87
2023/11/09 08:06:07;;;;;;;16.40;10.20;;;;;;;6.67;75.49;94465.00;5065576;28;20322;-86
2023/11/09 08:08:34;;;;;;;17.58;9.98;;;;;;;6.65;74.96;94462.63;5065684;28;20026;-87
2023/11/09 08:11:00;;;;;;;16.15;9.73;;;;;;;6.69;74.65;94470.81;5065686;28;20094;-87
2023/11/09 08:13:26;;;;;;;17.60;9.55;;;;;;;6.69;75.06;94465.50;5065648;28;20096;-86
2023/11/09 08:15:52;;;;;;;13.30;8.82;;;;;;;6.77;74.47;94470.25;5065706;28;20029;-87
2023/11/09 08:18:17;;;;;;;12.10;8.70;;;;;;;6.79;74.39;94468.88;5064331;28;20095;-87
2023/11/09 08:20:43;;;;;;;13.10;8.50;;;;;;;6.93;74.07;94469.06;5064168;28;20074;-87
2023/11/09 08:23:08;;;;;;;11.10;7.93;;;;;;;6.98;73.58;94469.06;5097740;28;20025;-87
2023/11/09 08:25:34;;;;;;;18.15;7.97;;;;;;;7.03;72.95;94476.97;5064262;28;20029;-87
2023/11/09 08:27:59;;;;;;;13.18;8.15;;;;;;;7.12;73.42;94476.38;5065469;28;20302;-87
2023/11/09 08:30:27;;;;;;;13.02;7.85;;;;;;;7.20;74.01;94479.22;5065232;28;20311;-86
2023/11/09 08:32:55;;;;;;;11.43;7.50;;;;;;;7.30;72.43;94483.66;5065148;28;20184;-86
2023/11/09 08:35:23;;;;;;;11.50;7.25;;;;;;;7.38;71.55;94484.94;5063966;28;20332;-86
2023/11/09 08:37:52;;;;;;;13.75;7.45;;;;;;;7.44;72.01;94489.13;5065110;28;20029;-86
2023/11/09 08:40:17;;;;;;;10.85;6.82;;;;;;;7.53;71.15;94491.97;5064989;28;20052;-87
2023/11/09 08:42:53;;;;;;;11.52;7.15;;;;;;;7.56;71.00;94486.13;5064817;28;20025;-86
2023/11/09 08:45:21;;;;;;;14.10;7.03;;;;;;;7.63;70.65;94478.63;5064942;28;20101;-86
2023/11/09 08:47:52;;;;;;;10.80;6.18;;;;;;;7.65;70.13;94479.16;5062971;28;20206;-87
2023/11/09 08:50:18;;;;;;;17.75;7.28;;;;;;;7.72;69.96;94484.94;5063503;28;20024;-87
2023/11/09 08:52:44;;;;;;;11.90;7.15;;;;;;;7.80;70.02;94473.72;5064817;28;20100;-87
2023/11/09 08:55:11;;;;;;;10.25;6.68;;;;;;;7.94;69.97;94475.72;5064916;28;20044;-88
2023/11/09 08:57:38;;;;;;;11.13;7.13;;;;;;;8.08;69.26;94476.63;5064656;28;20070;-88
2023/11/09 09:00:06;;;;;;;18.77;8.20;;;;;;;8.13;68.64;94468.59;5064158;28;20024;-85
2023/11/09 09:02:32;;;;;;;12.13;6.28;;;;;;;8.15;68.41;94473.63;5064399;28;20021;-86
2023/11/09 09:05:00;;;;;;;12.02;6.88;;;;;;;8.20;68.48;94476.22;5064448;28;20056;-86
2023/11/09 09:07:26;;;;;;;12.82;6.90;;;;;;;8.26;68.65;94469.00;5064806;28;20090;-86
2023/11/09 09:09:52;;;;;;;11.18;6.60;;;;;;;8.26;67.85;94463.69;5063161;28;20346;-82
2023/11/09 09:12:20;;;;;;;19.17;6.50;;;;;;;8.25;68.01;94465.56;5096005;28;20047;-82
2023/11/09 09:14:47;;;;;;;10.52;5.97;;;;;;;8.37;67.81;94465.16;5063685;28;20219;-82
2023/11/09 09:17:15;;;;;;;12.32;6.80;;;;;;;8.45;67.13;94456.59;5063478;28;20039;-80
2023/11/09 09:19:41;;;;;;;9.52;6.40;;;;;;;8.43;67.07;94458.75;5063718;28;20036;-84
2023/11/09 09:22:07;;;;;;;16.92;6.70;;;;;;;8.41;66.93;94448.38;5063747;28;20017;-82
2023/11/09 09:24:32;;;;;;;16.83;6.25;;;;;;;8.41;67.23;94458.22;5096750;28;20027;-83
2023/11/09 09:26:58;;;;;;;14.98;6.25;;;;;;;8.51;67.26;94455.44;5064671;28;20017;-86
2023/11/09 09:29:24;;;;;;;9.25;6.13;;;;;;;8.64;67.26;94452.06;5064150;28;20261;-87
2023/11/09 09:31:50;;;;;;;10.10;6.40;;;;;;;8.73;67.25;94468.19;5065130;28;20009;-91
2023/11/09 09:34:23;;;;;;;11.70;5.75;;;;;;;8.76;66.10;94456.97;5068490;28;20024;-89
2023/11/09 09:36:49;;;;;;;9.32;5.57;;;;;;;8.80;66.52;94455.31;5065356;28;20024;-87
2023/11/09 09:39:17;;;;;;;16.23;8.15;;;;;;;8.83;66.29;94456.63;5097157;28;20063;-90
2023/11/09 09:41:50;;;;;;;9.43;5.85;;;;;;;8.93;67.02;94448.50;5064194;28;20045;-85
2023/11/09 09:44:17;;;;;;;16.60;6.30;;;;;;;9.07;66.95;94453.09;5062686;28;20017;-85
2023/11/09 09:46:43;;;;;;;8.27;5.80;;;;;;;9.12;65.93;94445.84;5063781;28;20277;-86
2023/11/09 09:49:10;;;;;;;9.43;5.88;;;;;;;9.27;66.72;94446.69;5063676;28;20048;-86
2023/11/09 09:51:37;;;;;;;13.60;5.88;;;;;;;9.39;66.15;94441.72;5062740;28;20029;-87
2023/11/09 09:54:08;;;;;;;11.75;5.63;;;;;;;9.51;65.31;94436.72;5062443;28;20025;-85
2023/11/09 09:56:37;;;;;;;15.80;6.65;;;;;;;9.62;65.26;94429.34;5063365;28;20270;-83
2023/11/09 09:59:04;;;;;;;13.98;6.10;;;;;;;9.77;65.23;94436.25;5061608;28;20100;-83
2023/11/09 10:01:32;;;;;;;10.27;5.82;;;;;;;9.92;64.72;94441.34;5063125;28;20025;-83
2023/11/09 10:03:58;;;;;;;11.70;6.07;;;;;;;10.03;64.56;94431.28;5063126;28;20025;-83
2023/11/09 10:06:25;;;;;;;11.73;6.65;;;;;;;10.14;64.09;94431.88;5062960;28;20096;-87
2023/11/09 10:08:51;;;;;;;13.77;6.63;;;;;;;10.25;63.40;94434.03;5063302;28;20021;-86
2023/11/09 10:11:17;;;;;;;14.95;6.47;;;;;;;10.39;63.04;94422.63;5063090;28;20253;-85
2023/11/09 10:13:45;;;;;;;14.13;6.28;;;;;;;10.50;60.99;94417.88;5062995;28;20048;-85
2023/11/09 10:16:14;;;;;;;9.10;5.85;;;;;;;10.51;60.20;94425.56;5095220;28;20086;-82
2023/11/09 10:18:40;;;;;;;11.98;6.32;;;;;;;10.56;61.23;94422.00;5062901;28;20097;-85
2023/11/09 10:21:07;;;;;;;14.45;6.13;;;;;;;10.59;60.82;94416.09;5063184;28;20021;-87
2023/11/09 10:23:32;;;;;;;13.52;5.38;;;;;;;10.65;60.75;94417.56;5063416;28;20025;-87
2023/11/09 10:26:02;;;;;;;11.68;6.05;;;;;;;10.77;60.64;94417.06;5063055;28;20023;-82
2023/11/09 10:28:36;;;;;;;10.45;6.10;;;;;;;10.74;59.26;94407.75;5062798;28;20040;-84
2023/11/09 10:31:03;;;;;;;8.98;5.28;;;;;;;10.66;58.45;94405.00;5062501;28;20028;-84
2023/11/09 10:33:32;;;;;;;12.38;5.60;;;;;;;10.49;58.98;94405.66;5062912;28;20327;-82
2023/11/09 10:35:58;;;;;;;10.05;5.38;;;;;;;10.46;59.30;94403.56;5062471;28;20032;-82
2023/11/09 10:38:24;;;;;;;13.52;7.07;;;;;;;10.47;59.82;94395.28;5062239;28;20243;-82
2023/11/09 10:40:51;;;;;;;14.80;6.30;;;;;;;10.44;59.65;94398.53;5094964;28;20044;-82
2023/11/09 10:43:16;;;;;;;13.43;5.95;;;;;;;10.44;59.73;94399.34;5061353;28;20040;-81
2023/11/09 10:45:44;;;;;;;10.18;6.07;;;;;;;10.54;59.69;94392.19;5062455;28;20040;-83
2023/11/09 10:48:12;;;;;;;8.02;5.32;;;;;;;10.61;58.40;94382.72;5062417;28;20278;-83
2023/11/09 10:50:49;;;;;;;9.60;5.70;;;;;;;10.69;58.39;94391.88;5062324;28;20130;-83
2023/11/09 10:53:20;;;;;;;9.38;6.10;;;;;;;10.77;59.26;94391.16;5095235;28;20021;-86
2023/11/09 10:55:49;;;;;;;9.15;5.78;;;;;;;10.85;58.41;94384.34;5062972;28;20047;-86
2023/11/09 10:58:23;;;;;;;10.50;6.05;;;;;;;11.00;58.92;94385.84;5095389;28;20103;-87
2023/11/09 11:00:58;;;;;;;10.57;5.60;;;;;;;11.01;57.72;94374.09;5062722;28;20066;-86
2023/11/09 11:03:39;;;;;;;9.38;5.70;;;;;;;11.11;58.34;94381.84;5063177;28;20351;-86
2023/11/09 11:06:16;;;;;;;11.95;6.22;;;;;;;11.31;60.26;94377.91;5062836;28;20025;-86
2023/11/09 11:08:43;;;;;;;10.35;4.90;;;;;;;11.48;57.50;94376.44;5062874;28;20036;-86
2023/11/09 11:11:16;;;;;;;8.43;4.97;;;;;;;11.60;57.42;94380.13;5066596;28;20028;-84
2023/11/09 11:13:48;;;;;;;8.63;4.95;;;;;;;11.77;57.48;94383.97;5066022;28;20025;-83
2023/11/09 11:16:20;;;;;;;9.30;5.63;;;;;;;11.97;57.49;94382.69;5064644;28;20048;-85
2023/11/09 11:18:57;;;;;;;9.90;4.75;;;;;;;12.13;56.20;94370.47;5066097;28;20017;-89
2023/11/09 11:21:41;;;;;;;12.88;5.85;;;;;;;12.21;53.10;94372.41;5066468;28;20021;-87
2023/11/09 11:25:06;;;;;;;9.70;4.90;;;;;;;12.22;51.82;94373.16;5066456;28;20074;-84
2023/11/09 11:27:37;;;;;;;8.05;4.75;;;;;;;12.17;51.45;94365.28;5045157;28;20029;-88
2023/11/09 11:30:41;;;;;;;8.95;4.80;;;;;;;12.17;52.67;94366.09;5044806;28;20053;-88
2023/11/09 11:33:13;;;;;;;10.48;5.53;;;;;;;12.25;52.94;94356.50;5061416;28;20037;-88
2023/11/09 11:35:46;;;;;;;11.00;5.65;;;;;;;12.43;54.40;94366.13;5066533;28;20020;-88
2023/11/09 11:39:10;;;;;;;13.23;5.80;;;;;;;12.58;53.22;94362.25;5066428;28;20037;-88
2023/11/09 11:41:37;;;;;;;18.60;5.80;;;;;;;12.76;52.88;94363.06;5053476;28;20040;-88
2023/11/09 11:44:03;;;;;;;11.25;5.65;;;;;;;12.95;53.03;94361.94;5066626;28;20017;-88
2023/11/09 11:46:28;;;;;;;12.10;6.20;;;;;;;13.10;51.91;94363.34;5066815;28;20017;-88